This is the latest recevied weather packets stored in our database for station/object DL8TF-13. If no packets are shown the sender has not sent any weather packets the latest 10 day(s).
| Time | Temp. | Humidity | Pressure | Rain* | Wind** | Luminosity | Snow |
|---|---|---|---|---|---|---|---|
| 1778260480 | 21.67° C | 37% | 983 hPa | - | - | - | - |
| 1778259879 | 22.22° C | 37% | 983 hPa | - | - | - | - |
| 1778259279 | 22.22° C | 38% | 983 hPa | - | - | - | - |
| 1778258679 | 23.33° C | 35% | 983 hPa | - | - | - | - |
| 1778258079 | 23.33° C | 35% | 983 hPa | - | - | - | - |
| 1778257479 | 23.89° C | 35% | 983 hPa | - | - | - | - |
| 1778256879 | 24.44° C | 34% | 983 hPa | - | - | - | - |
| 1778256279 | 25° C | 33% | 983 hPa | - | - | - | - |
| 1778255679 | 25° C | 32% | 983 hPa | - | - | - | - |
| 1778255079 | 25° C | 34% | 983 hPa | - | - | - | - |
| 1778254479 | 24.44° C | 32% | 983 hPa | - | - | - | - |
| 1778253879 | 23.89° C | 32% | 983 hPa | - | - | - | - |
| 1778253279 | 23.89° C | 33% | 984 hPa | - | - | - | - |
| 1778252679 | 24.44° C | 31% | 983 hPa | - | - | - | - |
| 1778252079 | 26.11° C | 28% | 984 hPa | - | - | - | - |
| 1778251478 | 28.33° C | 26% | 984 hPa | - | - | - | - |
| 1778250878 | 32.22° C | 22% | 984 hPa | - | - | - | - |
| 1778250278 | 30° C | 23% | 984 hPa | - | - | - | - |
| 1778249678 | 31.67° C | 20% | 984 hPa | - | - | - | - |
| 1778249078 | 31.11° C | 21% | 984 hPa | - | - | - | - |
| 1778248478 | 33.89° C | 19% | 984 hPa | - | - | - | - |
| 1778247878 | 30.56° C | 22% | 984 hPa | - | - | - | - |
| 1778247278 | 35° C | 18% | 984 hPa | - | - | - | - |
| 1778246678 | 33.33° C | 20% | 984 hPa | - | - | - | - |
| 1778246078 | 30° C | 24% | 984 hPa | - | - | - | - |
* Rain since midnight (hover to see other rain measurements)
** Current wind speed in m/s (hover to see current wind gust speed)